sensor_id;sensor_type;location;lat;lon;timestamp;temperature;humidity
23471;DHT22;11908;50.806;4.424;2023-08-06T00:00:25;16.00;99.90
23471;DHT22;11908;50.806;4.424;2023-08-06T00:02:51;16.00;99.90
23471;DHT22;11908;50.806;4.424;2023-08-06T00:05:16;16.00;99.90
23471;DHT22;11908;50.806;4.424;2023-08-06T00:07:50;16.00;99.90
23471;DHT22;11908;50.806;4.424;2023-08-06T00:10:16;16.00;99.90
23471;DHT22;11908;50.806;4.424;2023-08-06T00:12:42;15.90;99.90
23471;DHT22;11908;50.806;4.424;2023-08-06T00:15:09;16.00;99.90
23471;DHT22;11908;50.806;4.424;2023-08-06T00:17:34;16.00;99.90
23471;DHT22;11908;50.806;4.424;2023-08-06T00:20:01;16.00;99.90
23471;DHT22;11908;50.806;4.424;2023-08-06T00:22:40;16.10;99.90
23471;DHT22;11908;50.806;4.424;2023-08-06T00:25:08;16.20;99.90
23471;DHT22;11908;50.806;4.424;2023-08-06T00:27:33;16.10;99.90
23471;DHT22;11908;50.806;4.424;2023-08-06T00:29:59;16.10;99.90
23471;DHT22;11908;50.806;4.424;2023-08-06T00:32:25;16.10;99.90
23471;DHT22;11908;50.806;4.424;2023-08-06T00:34:50;16.10;99.90
23471;DHT22;11908;50.806;4.424;2023-08-06T00:37:16;16.10;99.90
23471;DHT22;11908;50.806;4.424;2023-08-06T00:39:43;16.10;99.90
23471;DHT22;11908;50.806;4.424;2023-08-06T00:42:09;16.00;99.90
23471;DHT22;11908;50.806;4.424;2023-08-06T00:44:35;16.00;99.90
23471;DHT22;11908;50.806;4.424;2023-08-06T00:47:01;16.10;99.90
23471;DHT22;11908;50.806;4.424;2023-08-06T00:49:27;16.10;99.90
23471;DHT22;11908;50.806;4.424;2023-08-06T00:51:53;16.10;99.90
23471;DHT22;11908;50.806;4.424;2023-08-06T00:54:19;16.20;99.90
23471;DHT22;11908;50.806;4.424;2023-08-06T00:56:45;16.10;99.90
23471;DHT22;11908;50.806;4.424;2023-08-06T00:59:14;16.20;99.90
23471;DHT22;11908;50.806;4.424;2023-08-06T01:01:40;16.00;99.90
23471;DHT22;11908;50.806;4.424;2023-08-06T01:04:07;15.90;99.90
23471;DHT22;11908;50.806;4.424;2023-08-06T01:12:00;15.90;99.90
23471;DHT22;11908;50.806;4.424;2023-08-06T01:14:43;16.00;99.90
23471;DHT22;11908;50.806;4.424;2023-08-06T01:17:12;16.10;99.90
23471;DHT22;11908;50.806;4.424;2023-08-06T01:19:38;16.00;99.90
23471;DHT22;11908;50.806;4.424;2023-08-06T01:22:04;16.00;99.90
23471;DHT22;11908;50.806;4.424;2023-08-06T01:24:30;16.10;99.90
23471;DHT22;11908;50.806;4.424;2023-08-06T01:29:52;16.00;99.90
23471;DHT22;11908;50.806;4.424;2023-08-06T01:32:21;15.90;99.90
23471;DHT22;11908;50.806;4.424;2023-08-06T01:34:47;15.80;99.90
23471;DHT22;11908;50.806;4.424;2023-08-06T01:37:14;15.80;99.90
23471;DHT22;11908;50.806;4.424;2023-08-06T01:39:42;15.80;99.90
23471;DHT22;11908;50.806;4.424;2023-08-06T01:42:08;15.80;99.90
23471;DHT22;11908;50.806;4.424;2023-08-06T01:44:34;15.70;99.90
23471;DHT22;11908;50.806;4.424;2023-08-06T01:46:59;15.80;99.90
23471;DHT22;11908;50.806;4.424;2023-08-06T01:49:25;15.80;99.90
23471;DHT22;11908;50.806;4.424;2023-08-06T01:51:51;15.80;99.90
23471;DHT22;11908;50.806;4.424;2023-08-06T01:54:16;15.80;99.90
23471;DHT22;11908;50.806;4.424;2023-08-06T01:56:42;15.80;99.90
23471;DHT22;11908;50.806;4.424;2023-08-06T01:59:08;15.80;99.90
23471;DHT22;11908;50.806;4.424;2023-08-06T02:01:33;15.70;99.90
23471;DHT22;11908;50.806;4.424;2023-08-06T02:03:59;15.80;99.90
23471;DHT22;11908;50.806;4.424;2023-08-06T02:06:25;15.80;99.90
23471;DHT22;11908;50.806;4.424;2023-08-06T02:08:50;15.80;99.90
23471;DHT22;11908;50.806;4.424;2023-08-06T02:11:16;15.80;99.90
23471;DHT22;11908;50.806;4.424;2023-08-06T02:13:41;15.80;99.90
23471;DHT22;11908;50.806;4.424;2023-08-06T02:16:07;15.80;99.90
23471;DHT22;11908;50.806;4.424;2023-08-06T02:18:36;15.80;99.90
23471;DHT22;11908;50.806;4.424;2023-08-06T02:21:01;15.80;99.90
23471;DHT22;11908;50.806;4.424;2023-08-06T02:23:27;15.90;99.90
23471;DHT22;11908;50.806;4.424;2023-08-06T02:26:00;15.90;99.90
23471;DHT22;11908;50.806;4.424;2023-08-06T02:28:26;15.90;99.90
23471;DHT22;11908;50.806;4.424;2023-08-06T02:30:52;16.00;99.90
23471;DHT22;11908;50.806;4.424;2023-08-06T02:33:18;15.90;99.90
23471;DHT22;11908;50.806;4.424;2023-08-06T02:35:43;15.80;99.90
23471;DHT22;11908;50.806;4.424;2023-08-06T02:38:09;15.90;99.90
23471;DHT22;11908;50.806;4.424;2023-08-06T02:40:34;15.80;99.90
23471;DHT22;11908;50.806;4.424;2023-08-06T02:43:00;15.80;99.90
23471;DHT22;11908;50.806;4.424;2023-08-06T02:45:26;15.90;99.90
23471;DHT22;11908;50.806;4.424;2023-08-06T02:47:51;15.90;99.90
23471;DHT22;11908;50.806;4.424;2023-08-06T02:50:17;16.00;99.90
23471;DHT22;11908;50.806;4.424;2023-08-06T02:52:43;16.00;99.90
23471;DHT22;11908;50.806;4.424;2023-08-06T02:55:08;15.90;99.90
23471;DHT22;11908;50.806;4.424;2023-08-06T02:57:34;15.90;99.90
23471;DHT22;11908;50.806;4.424;2023-08-06T03:00:00;15.90;99.90
23471;DHT22;11908;50.806;4.424;2023-08-06T03:02:25;15.90;99.90
23471;DHT22;11908;50.806;4.424;2023-08-06T03:04:51;15.90;99.90
23471;DHT22;11908;50.806;4.424;2023-08-06T03:07:17;15.90;99.90
23471;DHT22;11908;50.806;4.424;2023-08-06T03:09:42;15.80;99.90
23471;DHT22;11908;50.806;4.424;2023-08-06T03:12:08;15.90;99.90
23471;DHT22;11908;50.806;4.424;2023-08-06T03:14:34;15.90;99.90
23471;DHT22;11908;50.806;4.424;2023-08-06T03:16:59;15.90;99.90
23471;DHT22;11908;50.806;4.424;2023-08-06T03:19:25;15.90;99.90
23471;DHT22;11908;50.806;4.424;2023-08-06T03:21:50;15.80;99.90
23471;DHT22;11908;50.806;4.424;2023-08-06T03:24:16;15.90;99.90
23471;DHT22;11908;50.806;4.424;2023-08-06T03:26:42;15.80;99.90
23471;DHT22;11908;50.806;4.424;2023-08-06T03:29:07;15.90;99.90
23471;DHT22;11908;50.806;4.424;2023-08-06T03:31:33;15.90;99.90
23471;DHT22;11908;50.806;4.424;2023-08-06T03:33:59;15.80;99.90
23471;DHT22;11908;50.806;4.424;2023-08-06T03:36:24;15.80;99.90
23471;DHT22;11908;50.806;4.424;2023-08-06T03:38:50;15.80;99.90
23471;DHT22;11908;50.806;4.424;2023-08-06T03:41:16;15.80;99.90
23471;DHT22;11908;50.806;4.424;2023-08-06T03:43:41;15.80;99.90
23471;DHT22;11908;50.806;4.424;2023-08-06T03:46:07;15.80;99.90
23471;DHT22;11908;50.806;4.424;2023-08-06T03:48:33;15.90;99.90
23471;DHT22;11908;50.806;4.424;2023-08-06T03:50:58;15.90;99.90
23471;DHT22;11908;50.806;4.424;2023-08-06T03:53:26;15.90;99.90
23471;DHT22;11908;50.806;4.424;2023-08-06T03:55:52;16.00;99.90
23471;DHT22;11908;50.806;4.424;2023-08-06T03:58:18;15.90;99.90
23471;DHT22;11908;50.806;4.424;2023-08-06T04:00:43;15.90;99.90
23471;DHT22;11908;50.806;4.424;2023-08-06T04:03:09;16.00;99.90
23471;DHT22;11908;50.806;4.424;2023-08-06T04:05:34;15.90;99.90
23471;DHT22;11908;50.806;4.424;2023-08-06T04:08:00;15.80;99.90
23471;DHT22;11908;50.806;4.424;2023-08-06T04:10:26;15.80;99.90
23471;DHT22;11908;50.806;4.424;2023-08-06T04:12:51;15.70;99.90
23471;DHT22;11908;50.806;4.424;2023-08-06T04:15:17;15.60;99.90
23471;DHT22;11908;50.806;4.424;2023-08-06T04:17:43;15.60;99.90
23471;DHT22;11908;50.806;4.424;2023-08-06T04:20:09;15.40;99.90
23471;DHT22;11908;50.806;4.424;2023-08-06T04:22:34;15.30;99.90
23471;DHT22;11908;50.806;4.424;2023-08-06T04:25:00;15.30;99.90
23471;DHT22;11908;50.806;4.424;2023-08-06T04:27:26;15.20;99.90
23471;DHT22;11908;50.806;4.424;2023-08-06T04:29:51;15.10;99.90
23471;DHT22;11908;50.806;4.424;2023-08-06T04:32:17;15.00;99.90
23471;DHT22;11908;50.806;4.424;2023-08-06T04:34:44;15.00;99.90
23471;DHT22;11908;50.806;4.424;2023-08-06T04:37:10;15.00;99.90
23471;DHT22;11908;50.806;4.424;2023-08-06T04:39:36;14.90;99.90
23471;DHT22;11908;50.806;4.424;2023-08-06T04:42:01;14.90;99.90
23471;DHT22;11908;50.806;4.424;2023-08-06T04:44:27;14.90;99.90
23471;DHT22;11908;50.806;4.424;2023-08-06T04:46:53;14.90;99.90
23471;DHT22;11908;50.806;4.424;2023-08-06T04:49:20;14.90;99.90
23471;DHT22;11908;50.806;4.424;2023-08-06T04:51:46;14.90;99.90
23471;DHT22;11908;50.806;4.424;2023-08-06T04:54:12;14.90;99.90
23471;DHT22;11908;50.806;4.424;2023-08-06T04:56:37;14.90;99.90
23471;DHT22;11908;50.806;4.424;2023-08-06T04:59:03;14.80;99.90
23471;DHT22;11908;50.806;4.424;2023-08-06T05:01:29;14.70;99.90
23471;DHT22;11908;50.806;4.424;2023-08-06T05:03:55;14.80;99.90
23471;DHT22;11908;50.806;4.424;2023-08-06T05:06:20;14.80;99.90
23471;DHT22;11908;50.806;4.424;2023-08-06T05:08:46;14.80;99.90
23471;DHT22;11908;50.806;4.424;2023-08-06T05:11:12;14.80;99.90
23471;DHT22;11908;50.806;4.424;2023-08-06T05:13:37;14.70;99.90
23471;DHT22;11908;50.806;4.424;2023-08-06T05:16:03;14.70;99.90
23471;DHT22;11908;50.806;4.424;2023-08-06T05:18:29;14.60;99.90
23471;DHT22;11908;50.806;4.424;2023-08-06T05:20:56;14.60;99.90
23471;DHT22;11908;50.806;4.424;2023-08-06T05:23:21;14.60;99.90
23471;DHT22;11908;50.806;4.424;2023-08-06T05:25:47;14.60;99.90
23471;DHT22;11908;50.806;4.424;2023-08-06T05:28:13;14.70;99.90
23471;DHT22;11908;50.806;4.424;2023-08-06T05:30:41;14.70;99.90
23471;DHT22;11908;50.806;4.424;2023-08-06T05:33:07;14.70;99.90
23471;DHT22;11908;50.806;4.424;2023-08-06T05:35:33;14.70;99.90
23471;DHT22;11908;50.806;4.424;2023-08-06T05:37:58;14.70;99.90
23471;DHT22;11908;50.806;4.424;2023-08-06T05:40:24;14.70;99.90
23471;DHT22;11908;50.806;4.424;2023-08-06T05:42:54;14.70;99.90
23471;DHT22;11908;50.806;4.424;2023-08-06T05:45:20;14.80;99.90
23471;DHT22;11908;50.806;4.424;2023-08-06T05:47:47;14.90;99.90
23471;DHT22;11908;50.806;4.424;2023-08-06T05:50:13;14.80;99.90
23471;DHT22;11908;50.806;4.424;2023-08-06T05:52:38;14.80;99.90
23471;DHT22;11908;50.806;4.424;2023-08-06T05:55:04;14.80;99.90
23471;DHT22;11908;50.806;4.424;2023-08-06T05:57:30;14.80;99.90
23471;DHT22;11908;50.806;4.424;2023-08-06T05:59:56;14.80;99.90
23471;DHT22;11908;50.806;4.424;2023-08-06T06:02:21;14.90;99.90
23471;DHT22;11908;50.806;4.424;2023-08-06T06:04:47;14.90;99.90
23471;DHT22;11908;50.806;4.424;2023-08-06T06:07:13;14.90;99.90
23471;DHT22;11908;50.806;4.424;2023-08-06T06:09:39;15.00;99.90
23471;DHT22;11908;50.806;4.424;2023-08-06T06:12:05;15.00;99.90
23471;DHT22;11908;50.806;4.424;2023-08-06T06:14:31;15.00;99.90
23471;DHT22;11908;50.806;4.424;2023-08-06T06:16:57;15.00;99.90
23471;DHT22;11908;50.806;4.424;2023-08-06T06:19:23;15.00;99.90
23471;DHT22;11908;50.806;4.424;2023-08-06T06:21:48;15.20;99.90
23471;DHT22;11908;50.806;4.424;2023-08-06T06:24:14;15.20;99.90
23471;DHT22;11908;50.806;4.424;2023-08-06T06:26:40;15.30;99.90
23471;DHT22;11908;50.806;4.424;2023-08-06T06:29:05;15.40;99.90
23471;DHT22;11908;50.806;4.424;2023-08-06T06:31:31;15.40;99.90
23471;DHT22;11908;50.806;4.424;2023-08-06T06:33:56;15.40;99.90
23471;DHT22;11908;50.806;4.424;2023-08-06T06:36:23;15.50;99.90
23471;DHT22;11908;50.806;4.424;2023-08-06T06:38:49;15.60;99.90
23471;DHT22;11908;50.806;4.424;2023-08-06T06:41:15;15.60;99.90
23471;DHT22;11908;50.806;4.424;2023-08-06T06:43:40;15.70;99.90
23471;DHT22;11908;50.806;4.424;2023-08-06T06:46:06;15.70;99.90
23471;DHT22;11908;50.806;4.424;2023-08-06T06:48:32;15.70;99.90
23471;DHT22;11908;50.806;4.424;2023-08-06T06:50:59;15.60;99.90
23471;DHT22;11908;50.806;4.424;2023-08-06T06:53:24;15.50;99.90
23471;DHT22;11908;50.806;4.424;2023-08-06T06:55:56;15.40;99.90
23471;DHT22;11908;50.806;4.424;2023-08-06T06:58:22;15.40;99.90
23471;DHT22;11908;50.806;4.424;2023-08-06T07:00:48;15.50;99.90
23471;DHT22;11908;50.806;4.424;2023-08-06T07:03:17;15.50;99.90
23471;DHT22;11908;50.806;4.424;2023-08-06T07:05:44;15.60;99.90
23471;DHT22;11908;50.806;4.424;2023-08-06T07:08:10;15.50;99.90
23471;DHT22;11908;50.806;4.424;2023-08-06T07:10:35;15.40;99.90
23471;DHT22;11908;50.806;4.424;2023-08-06T07:13:01;15.40;99.90
23471;DHT22;11908;50.806;4.424;2023-08-06T07:15:27;15.40;99.90
23471;DHT22;11908;50.806;4.424;2023-08-06T07:17:52;15.40;99.90
23471;DHT22;11908;50.806;4.424;2023-08-06T07:20:18;15.50;99.90
23471;DHT22;11908;50.806;4.424;2023-08-06T07:22:44;15.50;99.90
23471;DHT22;11908;50.806;4.424;2023-08-06T07:25:10;15.50;99.90
23471;DHT22;11908;50.806;4.424;2023-08-06T07:27:36;15.50;99.90
23471;DHT22;11908;50.806;4.424;2023-08-06T07:30:02;15.60;99.90
23471;DHT22;11908;50.806;4.424;2023-08-06T07:32:28;15.80;99.90
23471;DHT22;11908;50.806;4.424;2023-08-06T07:34:53;15.60;99.90
23471;DHT22;11908;50.806;4.424;2023-08-06T07:37:26;15.60;99.90
23471;DHT22;11908;50.806;4.424;2023-08-06T07:39:54;15.60;99.90
23471;DHT22;11908;50.806;4.424;2023-08-06T07:42:20;15.50;99.90
23471;DHT22;11908;50.806;4.424;2023-08-06T07:44:53;15.50;99.90
23471;DHT22;11908;50.806;4.424;2023-08-06T07:47:19;15.70;99.90
23471;DHT22;11908;50.806;4.424;2023-08-06T07:49:45;15.90;99.90
23471;DHT22;11908;50.806;4.424;2023-08-06T07:52:11;15.90;99.90
23471;DHT22;11908;50.806;4.424;2023-08-06T07:54:36;16.10;99.90
23471;DHT22;11908;50.806;4.424;2023-08-06T07:57:02;16.20;99.90
23471;DHT22;11908;50.806;4.424;2023-08-06T07:59:28;16.30;99.90
23471;DHT22;11908;50.806;4.424;2023-08-06T08:01:54;16.40;99.90
23471;DHT22;11908;50.806;4.424;2023-08-06T08:04:19;16.40;99.90
23471;DHT22;11908;50.806;4.424;2023-08-06T08:06:46;16.50;99.90
23471;DHT22;11908;50.806;4.424;2023-08-06T08:09:12;16.80;99.90
23471;DHT22;11908;50.806;4.424;2023-08-06T08:11:39;16.80;99.90
23471;DHT22;11908;50.806;4.424;2023-08-06T08:14:05;16.80;99.90
23471;DHT22;11908;50.806;4.424;2023-08-06T08:16:31;16.90;99.90
23471;DHT22;11908;50.806;4.424;2023-08-06T08:18:57;17.10;99.90
23471;DHT22;11908;50.806;4.424;2023-08-06T08:21:22;17.30;99.90
23471;DHT22;11908;50.806;4.424;2023-08-06T08:23:50;17.50;99.90
23471;DHT22;11908;50.806;4.424;2023-08-06T08:26:15;17.10;99.90
23471;DHT22;11908;50.806;4.424;2023-08-06T08:28:41;16.90;99.90
23471;DHT22;11908;50.806;4.424;2023-08-06T08:31:10;16.60;99.90
23471;DHT22;11908;50.806;4.424;2023-08-06T08:33:37;16.40;99.90
23471;DHT22;11908;50.806;4.424;2023-08-06T08:36:03;16.30;99.90
23471;DHT22;11908;50.806;4.424;2023-08-06T08:38:29;16.10;99.90
23471;DHT22;11908;50.806;4.424;2023-08-06T08:40:55;16.00;99.90
23471;DHT22;11908;50.806;4.424;2023-08-06T08:43:23;16.10;99.90
23471;DHT22;11908;50.806;4.424;2023-08-06T08:45:53;16.20;99.90
23471;DHT22;11908;50.806;4.424;2023-08-06T08:48:24;16.30;99.90
23471;DHT22;11908;50.806;4.424;2023-08-06T08:50:50;16.30;99.90
23471;DHT22;11908;50.806;4.424;2023-08-06T08:53:17;16.30;99.90
23471;DHT22;11908;50.806;4.424;2023-08-06T08:55:43;16.50;99.90
23471;DHT22;11908;50.806;4.424;2023-08-06T08:58:10;16.60;99.90
23471;DHT22;11908;50.806;4.424;2023-08-06T09:00:36;16.50;99.90
23471;DHT22;11908;50.806;4.424;2023-08-06T09:03:02;16.50;99.90
23471;DHT22;11908;50.806;4.424;2023-08-06T09:05:31;16.50;99.90
23471;DHT22;11908;50.806;4.424;2023-08-06T09:08:02;16.50;99.90
23471;DHT22;11908;50.806;4.424;2023-08-06T09:10:28;16.60;99.90
23471;DHT22;11908;50.806;4.424;2023-08-06T09:12:55;16.70;99.90
23471;DHT22;11908;50.806;4.424;2023-08-06T09:15:25;16.80;99.90
23471;DHT22;11908;50.806;4.424;2023-08-06T09:17:52;16.90;99.90
23471;DHT22;11908;50.806;4.424;2023-08-06T09:20:18;16.90;99.90
23471;DHT22;11908;50.806;4.424;2023-08-06T09:22:43;16.70;99.90
23471;DHT22;11908;50.806;4.424;2023-08-06T09:25:11;16.50;99.90
23471;DHT22;11908;50.806;4.424;2023-08-06T09:27:39;16.20;99.90
23471;DHT22;11908;50.806;4.424;2023-08-06T09:30:06;16.20;99.90
23471;DHT22;11908;50.806;4.424;2023-08-06T09:32:45;16.10;99.90
23471;DHT22;11908;50.806;4.424;2023-08-06T09:35:19;16.20;99.90
23471;DHT22;11908;50.806;4.424;2023-08-06T09:37:45;16.20;99.90
23471;DHT22;11908;50.806;4.424;2023-08-06T09:40:40;16.00;99.90
23471;DHT22;11908;50.806;4.424;2023-08-06T09:43:06;15.80;99.90
23471;DHT22;11908;50.806;4.424;2023-08-06T09:45:36;15.80;99.90
23471;DHT22;11908;50.806;4.424;2023-08-06T09:48:04;15.80;99.90
23471;DHT22;11908;50.806;4.424;2023-08-06T09:50:32;15.80;99.90
23471;DHT22;11908;50.806;4.424;2023-08-06T09:53:00;15.90;99.90
23471;DHT22;11908;50.806;4.424;2023-08-06T09:55:26;15.90;99.90
23471;DHT22;11908;50.806;4.424;2023-08-06T09:57:53;15.80;99.90
23471;DHT22;11908;50.806;4.424;2023-08-06T10:00:19;15.60;99.90
23471;DHT22;11908;50.806;4.424;2023-08-06T10:02:46;15.40;99.90
23471;DHT22;11908;50.806;4.424;2023-08-06T10:05:12;15.50;99.90
23471;DHT22;11908;50.806;4.424;2023-08-06T10:07:38;15.50;99.90
23471;DHT22;11908;50.806;4.424;2023-08-06T10:10:06;15.60;99.90
23471;DHT22;11908;50.806;4.424;2023-08-06T10:12:54;15.60;99.90
23471;DHT22;11908;50.806;4.424;2023-08-06T10:15:27;15.60;99.90
23471;DHT22;11908;50.806;4.424;2023-08-06T10:17:57;15.60;99.90
23471;DHT22;11908;50.806;4.424;2023-08-06T10:20:23;15.70;99.90
23471;DHT22;11908;50.806;4.424;2023-08-06T10:23:05;15.70;99.90
23471;DHT22;11908;50.806;4.424;2023-08-06T10:25:34;15.70;99.90
23471;DHT22;11908;50.806;4.424;2023-08-06T10:28:00;15.70;99.90
23471;DHT22;11908;50.806;4.424;2023-08-06T10:30:27;15.70;99.90
23471;DHT22;11908;50.806;4.424;2023-08-06T10:33:04;15.90;99.90
23471;DHT22;11908;50.806;4.424;2023-08-06T10:35:50;16.10;99.90
23471;DHT22;11908;50.806;4.424;2023-08-06T10:38:22;16.00;99.90
23471;DHT22;11908;50.806;4.424;2023-08-06T10:43:29;15.60;99.90
23471;DHT22;11908;50.806;4.424;2023-08-06T10:45:58;15.50;99.90
23471;DHT22;11908;50.806;4.424;2023-08-06T10:48:33;15.30;99.90
23471;DHT22;11908;50.806;4.424;2023-08-06T10:51:00;15.20;99.90
23471;DHT22;11908;50.806;4.424;2023-08-06T10:53:26;15.20;99.90
23471;DHT22;11908;50.806;4.424;2023-08-06T10:55:51;15.10;99.90
23471;DHT22;11908;50.806;4.424;2023-08-06T10:58:17;15.20;99.90
23471;DHT22;11908;50.806;4.424;2023-08-06T11:00:43;15.30;99.90
23471;DHT22;11908;50.806;4.424;2023-08-06T11:03:09;15.50;99.90
23471;DHT22;11908;50.806;4.424;2023-08-06T11:05:35;15.70;99.90
23471;DHT22;11908;50.806;4.424;2023-08-06T11:08:01;15.80;99.90
23471;DHT22;11908;50.806;4.424;2023-08-06T11:10:27;15.90;99.90
23471;DHT22;11908;50.806;4.424;2023-08-06T11:12:53;16.00;99.90
23471;DHT22;11908;50.806;4.424;2023-08-06T11:15:20;16.10;99.90
23471;DHT22;11908;50.806;4.424;2023-08-06T11:17:46;16.20;99.90
23471;DHT22;11908;50.806;4.424;2023-08-06T11:20:12;16.20;99.90
23471;DHT22;11908;50.806;4.424;2023-08-06T11:22:37;16.20;99.90
23471;DHT22;11908;50.806;4.424;2023-08-06T11:25:06;16.00;99.90
23471;DHT22;11908;50.806;4.424;2023-08-06T11:27:31;15.90;99.90
23471;DHT22;11908;50.806;4.424;2023-08-06T11:29:57;15.80;99.90
23471;DHT22;11908;50.806;4.424;2023-08-06T11:32:23;15.80;99.90
23471;DHT22;11908;50.806;4.424;2023-08-06T11:34:49;15.80;99.90
23471;DHT22;11908;50.806;4.424;2023-08-06T11:37:15;15.90;99.90
23471;DHT22;11908;50.806;4.424;2023-08-06T11:39:46;16.00;99.90
23471;DHT22;11908;50.806;4.424;2023-08-06T11:42:13;16.00;99.90
23471;DHT22;11908;50.806;4.424;2023-08-06T11:44:40;15.90;99.90
23471;DHT22;11908;50.806;4.424;2023-08-06T11:47:13;15.80;99.90
23471;DHT22;11908;50.806;4.424;2023-08-06T11:52:23;15.60;99.90
23471;DHT22;11908;50.806;4.424;2023-08-06T11:55:02;15.60;99.90
23471;DHT22;11908;50.806;4.424;2023-08-06T11:57:32;15.30;99.90
23471;DHT22;11908;50.806;4.424;2023-08-06T12:00:12;15.40;99.90
23471;DHT22;11908;50.806;4.424;2023-08-06T12:02:42;15.50;99.90
23471;DHT22;11908;50.806;4.424;2023-08-06T12:05:13;15.60;99.90
23471;DHT22;11908;50.806;4.424;2023-08-06T12:07:44;15.60;99.90
23471;DHT22;11908;50.806;4.424;2023-08-06T12:10:10;15.70;99.90
23471;DHT22;11908;50.806;4.424;2023-08-06T12:12:36;15.60;99.90
23471;DHT22;11908;50.806;4.424;2023-08-06T12:15:03;15.60;99.90
23471;DHT22;11908;50.806;4.424;2023-08-06T12:17:29;15.60;99.90
23471;DHT22;11908;50.806;4.424;2023-08-06T12:19:55;15.70;99.90
23471;DHT22;11908;50.806;4.424;2023-08-06T12:22:20;15.80;99.90
23471;DHT22;11908;50.806;4.424;2023-08-06T12:24:47;16.10;99.90
23471;DHT22;11908;50.806;4.424;2023-08-06T12:27:13;16.30;99.90
23471;DHT22;11908;50.806;4.424;2023-08-06T12:29:43;16.60;99.90
23471;DHT22;11908;50.806;4.424;2023-08-06T12:32:10;16.80;99.90
23471;DHT22;11908;50.806;4.424;2023-08-06T12:34:37;17.10;99.90
23471;DHT22;11908;50.806;4.424;2023-08-06T12:37:03;17.30;99.90
23471;DHT22;11908;50.806;4.424;2023-08-06T12:39:29;17.20;99.90
23471;DHT22;11908;50.806;4.424;2023-08-06T12:41:55;17.40;99.90
23471;DHT22;11908;50.806;4.424;2023-08-06T12:44:23;17.30;99.90
23471;DHT22;11908;50.806;4.424;2023-08-06T12:46:49;17.00;99.90
23471;DHT22;11908;50.806;4.424;2023-08-06T12:49:15;16.90;99.90
23471;DHT22;11908;50.806;4.424;2023-08-06T12:51:41;16.50;99.90
23471;DHT22;11908;50.806;4.424;2023-08-06T12:54:06;16.40;99.90
23471;DHT22;11908;50.806;4.424;2023-08-06T12:56:32;16.10;99.90
23471;DHT22;11908;50.806;4.424;2023-08-06T12:58:58;16.20;99.90
23471;DHT22;11908;50.806;4.424;2023-08-06T13:01:23;16.40;99.90
23471;DHT22;11908;50.806;4.424;2023-08-06T13:03:49;16.50;99.90
23471;DHT22;11908;50.806;4.424;2023-08-06T13:06:15;16.60;99.90
23471;DHT22;11908;50.806;4.424;2023-08-06T13:08:40;16.80;99.90
23471;DHT22;11908;50.806;4.424;2023-08-06T13:11:06;17.10;99.90
23471;DHT22;11908;50.806;4.424;2023-08-06T13:13:31;17.20;99.90
23471;DHT22;11908;50.806;4.424;2023-08-06T13:15:57;17.10;99.90
23471;DHT22;11908;50.806;4.424;2023-08-06T13:18:23;17.10;99.90
23471;DHT22;11908;50.806;4.424;2023-08-06T13:20:48;17.00;99.90
23471;DHT22;11908;50.806;4.424;2023-08-06T13:23:17;16.60;99.90
23471;DHT22;11908;50.806;4.424;2023-08-06T13:25:43;16.50;99.90
23471;DHT22;11908;50.806;4.424;2023-08-06T13:28:09;16.40;99.90
23471;DHT22;11908;50.806;4.424;2023-08-06T13:30:35;16.40;99.90
23471;DHT22;11908;50.806;4.424;2023-08-06T13:33:10;16.30;99.90
23471;DHT22;11908;50.806;4.424;2023-08-06T13:35:35;16.20;99.90
23471;DHT22;11908;50.806;4.424;2023-08-06T13:38:01;16.30;99.90
23471;DHT22;11908;50.806;4.424;2023-08-06T13:40:33;16.20;99.90
23471;DHT22;11908;50.806;4.424;2023-08-06T13:43:00;16.20;99.90
23471;DHT22;11908;50.806;4.424;2023-08-06T13:45:25;15.90;99.90
23471;DHT22;11908;50.806;4.424;2023-08-06T13:47:51;15.90;99.90
23471;DHT22;11908;50.806;4.424;2023-08-06T13:50:17;15.80;99.90
23471;DHT22;11908;50.806;4.424;2023-08-06T13:52:43;15.70;99.90
23471;DHT22;11908;50.806;4.424;2023-08-06T13:55:08;15.60;99.90
23471;DHT22;11908;50.806;4.424;2023-08-06T13:57:34;15.60;99.90
23471;DHT22;11908;50.806;4.424;2023-08-06T14:00:01;15.70;99.90
23471;DHT22;11908;50.806;4.424;2023-08-06T14:02:27;15.60;99.90
23471;DHT22;11908;50.806;4.424;2023-08-06T14:04:53;15.60;99.90
23471;DHT22;11908;50.806;4.424;2023-08-06T14:07:19;15.60;99.90
23471;DHT22;11908;50.806;4.424;2023-08-06T14:09:44;15.60;99.90
23471;DHT22;11908;50.806;4.424;2023-08-06T14:12:12;15.70;99.90
23471;DHT22;11908;50.806;4.424;2023-08-06T14:14:38;15.80;99.90
23471;DHT22;11908;50.806;4.424;2023-08-06T14:17:04;15.80;99.90
23471;DHT22;11908;50.806;4.424;2023-08-06T14:19:29;15.90;99.90
23471;DHT22;11908;50.806;4.424;2023-08-06T14:21:55;16.00;99.90
23471;DHT22;11908;50.806;4.424;2023-08-06T14:24:21;15.90;99.90
23471;DHT22;11908;50.806;4.424;2023-08-06T14:26:47;16.00;99.90
23471;DHT22;11908;50.806;4.424;2023-08-06T14:29:13;15.90;99.90
23471;DHT22;11908;50.806;4.424;2023-08-06T14:31:42;16.00;99.90
23471;DHT22;11908;50.806;4.424;2023-08-06T14:34:08;16.00;99.90
23471;DHT22;11908;50.806;4.424;2023-08-06T14:36:34;16.00;99.90
23471;DHT22;11908;50.806;4.424;2023-08-06T14:38:59;15.80;99.90
23471;DHT22;11908;50.806;4.424;2023-08-06T14:41:25;15.90;99.90
23471;DHT22;11908;50.806;4.424;2023-08-06T14:43:51;15.90;99.90
23471;DHT22;11908;50.806;4.424;2023-08-06T14:46:17;15.90;99.90
23471;DHT22;11908;50.806;4.424;2023-08-06T14:48:42;16.00;99.90
23471;DHT22;11908;50.806;4.424;2023-08-06T14:51:08;15.80;99.90
23471;DHT22;11908;50.806;4.424;2023-08-06T14:53:34;15.90;99.90
23471;DHT22;11908;50.806;4.424;2023-08-06T14:56:00;16.00;99.90
23471;DHT22;11908;50.806;4.424;2023-08-06T14:58:26;16.00;99.90
23471;DHT22;11908;50.806;4.424;2023-08-06T15:00:52;16.20;99.90
23471;DHT22;11908;50.806;4.424;2023-08-06T15:03:18;16.30;99.90
23471;DHT22;11908;50.806;4.424;2023-08-06T15:05:46;16.40;99.90
23471;DHT22;11908;50.806;4.424;2023-08-06T15:08:12;16.40;99.90
23471;DHT22;11908;50.806;4.424;2023-08-06T15:10:37;16.60;99.90
23471;DHT22;11908;50.806;4.424;2023-08-06T15:13:03;16.90;99.90
23471;DHT22;11908;50.806;4.424;2023-08-06T15:15:29;17.10;99.90
23471;DHT22;11908;50.806;4.424;2023-08-06T15:17:54;16.90;99.90
23471;DHT22;11908;50.806;4.424;2023-08-06T15:20:20;16.90;99.90
23471;DHT22;11908;50.806;4.424;2023-08-06T15:22:47;16.90;99.90
23471;DHT22;11908;50.806;4.424;2023-08-06T15:25:13;16.80;99.90
23471;DHT22;11908;50.806;4.424;2023-08-06T15:27:38;16.60;99.90
23471;DHT22;11908;50.806;4.424;2023-08-06T15:30:06;16.50;99.90
23471;DHT22;11908;50.806;4.424;2023-08-06T15:32:31;16.50;99.90
23471;DHT22;11908;50.806;4.424;2023-08-06T15:34:57;16.40;99.90
23471;DHT22;11908;50.806;4.424;2023-08-06T15:37:23;16.10;99.90
23471;DHT22;11908;50.806;4.424;2023-08-06T15:39:49;15.80;99.90